• Join FlightAware (Why Join?)
  • Login
  • US Flag 
05:22PM EDT


 

Airport Tracker/Info


-or-


 

Live Flight TrackerFlight Track Log ✈ N143DE ✈ 19-Oct-2013 ✈ KPMU - KRYY

Flight Track Log - Related Links

Times and Time Zones

All times are in EDT time to prevent confusion due to time zone crossing. See the N143DE flight status page for this flight to view local times or setup timezone preferences in your user account.

Time Position Orientation Groundspeed Altitude Reporting Facility
EDT Latitude Longitude Course Direction KTS MPH feet Rate Location/Type
01:54PM 34.3825 -89.8639 173° South 260 299 2,200  Level Memphis Center
01:55PM 34.3325 -89.8567 173° South 171 197 4,200 1,680 Climbing Memphis Center
01:56PM 34.2803 -89.8544 178° South 182 209 5,600 1,560 Climbing Memphis Center
01:57PM 34.2569 -89.7942 115° Southeast 169 194 7,400 1,980 Climbing Memphis Center
01:58PM 34.2544 -89.7289 93° East 176 203 9,600 2,040 Climbing Memphis Center
01:59PM 34.2522 -89.6611 92° East 198 228 11,500 1,860 Climbing Memphis Center
02:00PM 34.2475 -89.5908 95° East 203 234 13,400 1,800 Climbing Memphis Center
02:01PM 34.2469 -89.5203 91° East 208 239 15,100 1,560 Climbing Memphis Center
02:02PM 34.2403 -89.4500 97° East 208 239 16,600 3,900 Climbing Memphis Center
02:03PM 34.2378 -89.3772 92° East 213 245 23,000 1,260 Climbing Memphis Center
02:04PM 34.2308 -89.3069 97° East 213 245 19,200 -1,440 Descending Memphis Center
02:05PM 34.2258 -89.2292 94° East 219 252 20,200 900 Climbing Memphis Center
02:06PM 34.2211 -89.1614 95° East 226 260 21,100 900 Climbing Memphis Center
02:07PM 34.2161 -89.0786 94° East 236 272 22,100 900 Climbing Memphis Center
02:08PM 34.2111 -88.9958 94° East 241 277 22,900 480 Climbing Memphis Center
02:09PM 34.2017 -88.9031 97° East 260 299 23,100 60 Climbing Memphis Center
02:10PM 34.1942 -88.8003 95° East 286 329 23,100 -60 Level Memphis Center
02:11PM 34.1886 -88.6950 94° East 306 352 23,000 -60 Descending Memphis Center
02:12PM 34.1828 -88.5819 94° East 318 366 23,000  Level Memphis Center
02:13PM 34.1750 -88.4742 95° East 325 374 23,000  Level Memphis Center
02:14PM 34.1669 -88.3614 95° East 330 380 23,000  Level Memphis Center
02:15PM 34.1569 -88.2511 96° East 330 380 23,000  Level Memphis Center
02:16PM 34.1506 -88.1258 93° East 337 388 23,000  Level Memphis Center
02:17PM 34.1403 -88.0183 97° East 337 388 23,000  Level Memphis Center
02:18PM 34.1319 -87.9106 95° East 327 376 23,000  Level Memphis Center
02:19PM 34.1214 -87.8006 97° East 327 376 23,000  Level Memphis Center
02:22PM 34.0992 -87.5408 96° East 344 396 23,000  Level Atlanta Center
02:23PM 34.0919 -87.4275 94° East 338 389 23,000  Level Atlanta Center
02:24PM 34.0844 -87.3194 95° East 332 382 23,000  Level Atlanta Center
02:25PM 34.0728 -87.2086 97° East 332 382 23,000  Level Atlanta Center
02:26PM 34.0631 -87.0981 96° East 332 382 23,000  Level Atlanta Center
02:27PM 34.0553 -86.9850 95° East 332 382 23,000  Level Atlanta Center
02:28PM 34.0456 -86.8767 96° East 332 382 23,000  Level Atlanta Center
02:29PM 34.0375 -86.7661 95° East 332 382 23,000 -180 Level Atlanta Center
02:30PM 34.0272 -86.6581 97° East 332 382 22,700 -780 Descending Atlanta Center
02:31PM 34.0150 -86.5425 97° East 332 382 21,500 -1,380 Descending Atlanta Center
02:32PM 34.0050 -86.4219 96° East 343 395 20,000 -1,620 Descending Atlanta Center
02:33PM 33.9947 -86.3064 96° East 348 400 18,300 -1,260 Descending Atlanta Center
02:34PM 33.9842 -86.1908 96° East 348 400 17,500 2,340 Descending Atlanta Center
02:35PM 33.9736 -86.0778 96° East 348 400 23,000 2,700 Climbing Atlanta Center
02:36PM 33.9711 -85.9675 92° East 338 389 23,000  Level Atlanta Center
02:37PM 33.9706 -85.8672 90° East 317 365 23,000 -6,000 Level Atlanta Center
02:38PM 33.9739 -85.7822 87° East 293 337 11,000 -6,000 Descending Atlanta Center
02:39PM 33.9731 -85.6944 91° East 262 302 11,000  Level Atlanta Center
02:40PM 33.9722 -85.6094 91° East 251 289 11,000  Level Atlanta Center
02:41PM 33.9692 -85.5142 92° East 256 295 11,000  Level Atlanta Center
02:42PM 33.9681 -85.4264 91° East 251 289 11,000 -360 Level Atlanta Center
02:43PM 33.9628 -85.3361 94° East 256 295 10,300 -900 Descending Atlanta Center
02:45PM 33.9500 -85.1299 90° East  Level FlightAware Approximate
02:49PM 34.0333 -84.7500 90° East 228 262 4,400  Level Atlanta TRACON
02:50PM 34.0500 -84.6833 73° East 183 211 3,900 -600 Descending Atlanta TRACON
02:51PM 34.0500 -84.6333 90° East 168 193 3,300 -780 Descending Atlanta TRACON
02:52PM 34.0132 -84.5971 90° East  Level Estimated
02:52PM 34.0500 -84.5833 90° East 158 182 2,300  Level Atlanta TRACON
02:53PM 34.0132 -84.5971 90° East  Level Estimated
02:53PM 34.0167 -84.5667 157° South 131 151 1,700  Level Atlanta TRACON
02:54PM 34.0132 -84.5971 90° East  Level Estimated
02:54PM 33.9833 -84.5667 180° South 128 147 1,700  Level Atlanta TRACON
02:55PM 34.0132 -84.5971 90° East  Level Estimated